sensor_id;sensor_type;location;lat;lon;timestamp;pressure;altitude;pressure_sealevel;temperature;humidity
44351;BME280;62766;62.622;17.912;2023-04-30T00:00:16;100200.31;;;3.25;56.42
44351;BME280;62766;62.622;17.912;2023-04-30T00:02:44;100202.54;;;3.21;56.67
44351;BME280;62766;62.622;17.912;2023-04-30T00:05:13;100202.45;;;3.14;56.66
44351;BME280;62766;62.622;17.912;2023-04-30T00:07:42;100201.05;;;3.22;56.73
44351;BME280;62766;62.622;17.912;2023-04-30T00:10:10;100203.34;;;3.10;56.82
44351;BME280;62766;62.622;17.912;2023-04-30T00:12:39;100200.89;;;3.21;56.95
44351;BME280;62766;62.622;17.912;2023-04-30T00:15:08;100203.62;;;3.10;56.92
44351;BME280;62766;62.622;17.912;2023-04-30T00:17:37;100208.89;;;3.08;57.07
44351;BME280;62766;62.622;17.912;2023-04-30T00:20:06;100204.19;;;2.96;57.04
44351;BME280;62766;62.622;17.912;2023-04-30T00:22:36;100207.04;;;2.85;57.02
44351;BME280;62766;62.622;17.912;2023-04-30T00:25:05;100208.92;;;2.72;57.14
44351;BME280;62766;62.622;17.912;2023-04-30T00:27:33;100210.67;;;2.85;57.62
44351;BME280;62766;62.622;17.912;2023-04-30T00:30:01;100208.97;;;2.86;57.67
44351;BME280;62766;62.622;17.912;2023-04-30T00:32:30;100211.11;;;2.94;57.53
44351;BME280;62766;62.622;17.912;2023-04-30T00:34:58;100213.07;;;3.06;57.32
44351;BME280;62766;62.622;17.912;2023-04-30T00:37:26;100209.46;;;3.04;57.25
44351;BME280;62766;62.622;17.912;2023-04-30T00:39:55;100210.05;;;3.07;57.27
44351;BME280;62766;62.622;17.912;2023-04-30T00:42:23;100208.62;;;3.13;57.31
44351;BME280;62766;62.622;17.912;2023-04-30T00:44:52;100209.73;;;3.14;57.38
44351;BME280;62766;62.622;17.912;2023-04-30T00:47:22;100210.41;;;3.05;57.22
44351;BME280;62766;62.622;17.912;2023-04-30T00:49:50;100206.46;;;3.02;57.24
44351;BME280;62766;62.622;17.912;2023-04-30T00:52:19;100205.60;;;3.09;57.40
44351;BME280;62766;62.622;17.912;2023-04-30T00:54:47;100204.55;;;2.95;57.56
44351;BME280;62766;62.622;17.912;2023-04-30T00:57:15;100203.95;;;3.04;58.07
44351;BME280;62766;62.622;17.912;2023-04-30T00:59:44;100203.64;;;3.12;58.16
44351;BME280;62766;62.622;17.912;2023-04-30T01:02:12;100200.66;;;3.22;57.99
44351;BME280;62766;62.622;17.912;2023-04-30T01:04:41;100199.53;;;3.44;57.63
44351;BME280;62766;62.622;17.912;2023-04-30T01:07:09;100200.41;;;3.36;57.28
44351;BME280;62766;62.622;17.912;2023-04-30T01:09:37;100201.08;;;3.31;57.11
44351;BME280;62766;62.622;17.912;2023-04-30T01:12:11;100197.89;;;3.31;56.99
44351;BME280;62766;62.622;17.912;2023-04-30T01:14:52;100200.59;;;3.21;57.11
44351;BME280;62766;62.622;17.912;2023-04-30T01:17:31;100201.81;;;3.25;57.30
44351;BME280;62766;62.622;17.912;2023-04-30T01:20:02;100206.43;;;3.15;57.49
44351;BME280;62766;62.622;17.912;2023-04-30T01:22:35;100204.07;;;3.06;57.53
44351;BME280;62766;62.622;17.912;2023-04-30T01:25:18;100207.36;;;3.10;57.72
44351;BME280;62766;62.622;17.912;2023-04-30T01:28:05;100207.94;;;3.21;57.70
44351;BME280;62766;62.622;17.912;2023-04-30T01:30:36;100205.88;;;3.25;57.61
44351;BME280;62766;62.622;17.912;2023-04-30T01:33:06;100208.56;;;3.23;57.32
44351;BME280;62766;62.622;17.912;2023-04-30T01:35:47;100210.20;;;3.23;57.07
44351;BME280;62766;62.622;17.912;2023-04-30T01:38:30;100210.85;;;3.35;57.03
44351;BME280;62766;62.622;17.912;2023-04-30T01:41:09;100205.25;;;3.28;57.19
44351;BME280;62766;62.622;17.912;2023-04-30T01:43:49;100206.45;;;3.18;57.48
44351;BME280;62766;62.622;17.912;2023-04-30T01:46:23;100202.20;;;3.26;57.62
44351;BME280;62766;62.622;17.912;2023-04-30T01:49:02;100204.66;;;3.29;57.67
44351;BME280;62766;62.622;17.912;2023-04-30T01:51:39;100204.97;;;3.23;57.49
44351;BME280;62766;62.622;17.912;2023-04-30T01:54:24;100200.93;;;3.36;57.74
44351;BME280;62766;62.622;17.912;2023-04-30T01:57:00;100203.82;;;3.33;57.75
44351;BME280;62766;62.622;17.912;2023-04-30T01:59:34;100205.83;;;3.26;57.71
44351;BME280;62766;62.622;17.912;2023-04-30T02:02:02;100206.49;;;3.25;57.69
44351;BME280;62766;62.622;17.912;2023-04-30T02:04:31;100210.41;;;3.20;57.69
44351;BME280;62766;62.622;17.912;2023-04-30T02:07:00;100209.84;;;3.20;57.73
44351;BME280;62766;62.622;17.912;2023-04-30T02:09:28;100211.42;;;3.22;57.66
44351;BME280;62766;62.622;17.912;2023-04-30T02:11:56;100207.96;;;3.20;57.71
44351;BME280;62766;62.622;17.912;2023-04-30T02:14:26;100207.71;;;3.30;57.37
44351;BME280;62766;62.622;17.912;2023-04-30T02:16:55;100212.08;;;3.27;57.34
44351;BME280;62766;62.622;17.912;2023-04-30T02:19:23;100210.66;;;3.18;57.39
44351;BME280;62766;62.622;17.912;2023-04-30T02:21:53;100213.67;;;3.11;57.67
44351;BME280;62766;62.622;17.912;2023-04-30T02:24:22;100212.53;;;3.12;57.80
44351;BME280;62766;62.622;17.912;2023-04-30T02:26:50;100214.76;;;3.09;57.89
44351;BME280;62766;62.622;17.912;2023-04-30T02:29:19;100214.50;;;3.11;57.91
44351;BME280;62766;62.622;17.912;2023-04-30T02:31:47;100215.64;;;3.10;58.06
44351;BME280;62766;62.622;17.912;2023-04-30T02:34:16;100216.57;;;2.99;58.22
44351;BME280;62766;62.622;17.912;2023-04-30T02:36:44;100221.64;;;3.03;58.08
44351;BME280;62766;62.622;17.912;2023-04-30T02:39:12;100221.83;;;3.11;57.98
44351;BME280;62766;62.622;17.912;2023-04-30T02:41:41;100220.87;;;2.90;58.14
44351;BME280;62766;62.622;17.912;2023-04-30T02:44:10;100220.22;;;2.91;58.26
44351;BME280;62766;62.622;17.912;2023-04-30T02:46:40;100221.15;;;2.95;58.15
44351;BME280;62766;62.622;17.912;2023-04-30T02:49:09;100227.29;;;3.02;58.21
44351;BME280;62766;62.622;17.912;2023-04-30T02:51:37;100230.20;;;2.91;58.17
44351;BME280;62766;62.622;17.912;2023-04-30T02:54:05;100230.20;;;2.96;58.17
44351;BME280;62766;62.622;17.912;2023-04-30T02:56:34;100231.03;;;2.97;58.22
44351;BME280;62766;62.622;17.912;2023-04-30T02:59:02;100234.35;;;2.93;58.35
44351;BME280;62766;62.622;17.912;2023-04-30T03:01:31;100232.87;;;2.88;58.29
44351;BME280;62766;62.622;17.912;2023-04-30T03:03:59;100234.46;;;2.88;58.13
44351;BME280;62766;62.622;17.912;2023-04-30T03:06:28;100235.73;;;2.92;58.14
44351;BME280;62766;62.622;17.912;2023-04-30T03:08:56;100237.44;;;3.03;58.39
44351;BME280;62766;62.622;17.912;2023-04-30T03:11:25;100241.52;;;2.87;58.38
44351;BME280;62766;62.622;17.912;2023-04-30T03:13:54;100245.91;;;3.01;58.11
44351;BME280;62766;62.622;17.912;2023-04-30T03:16:23;100246.10;;;2.97;57.64
44351;BME280;62766;62.622;17.912;2023-04-30T03:18:52;100248.73;;;3.05;57.12
44351;BME280;62766;62.622;17.912;2023-04-30T03:21:22;100244.36;;;3.23;56.54
44351;BME280;62766;62.622;17.912;2023-04-30T03:23:50;100243.42;;;3.18;56.04
44351;BME280;62766;62.622;17.912;2023-04-30T03:26:19;100247.28;;;3.38;55.88
44351;BME280;62766;62.622;17.912;2023-04-30T03:28:47;100245.70;;;3.40;55.16
44351;BME280;62766;62.622;17.912;2023-04-30T03:31:15;100247.58;;;3.40;54.77
44351;BME280;62766;62.622;17.912;2023-04-30T03:33:44;100247.36;;;3.37;54.94
44351;BME280;62766;62.622;17.912;2023-04-30T03:36:12;100246.78;;;3.49;54.47
44351;BME280;62766;62.622;17.912;2023-04-30T03:38:40;100245.60;;;3.57;54.10
44351;BME280;62766;62.622;17.912;2023-04-30T03:41:09;100245.38;;;3.59;53.57
44351;BME280;62766;62.622;17.912;2023-04-30T03:43:37;100246.01;;;3.67;53.33
44351;BME280;62766;62.622;17.912;2023-04-30T03:46:06;100242.45;;;3.85;52.74
44351;BME280;62766;62.622;17.912;2023-04-30T03:48:34;100244.93;;;3.86;52.34
44351;BME280;62766;62.622;17.912;2023-04-30T03:51:03;100244.48;;;3.96;51.67
44351;BME280;62766;62.622;17.912;2023-04-30T03:53:31;100246.22;;;3.94;50.64
44351;BME280;62766;62.622;17.912;2023-04-30T03:55:59;100243.70;;;3.96;49.05
44351;BME280;62766;62.622;17.912;2023-04-30T03:58:28;100246.86;;;3.91;48.54
44351;BME280;62766;62.622;17.912;2023-04-30T04:03:36;100246.01;;;3.74;48.21
44351;BME280;62766;62.622;17.912;2023-04-30T04:06:04;100246.25;;;3.97;47.80
44351;BME280;62766;62.622;17.912;2023-04-30T04:08:32;100246.35;;;3.93;47.39
44351;BME280;62766;62.622;17.912;2023-04-30T04:11:01;100248.84;;;4.08;47.38
44351;BME280;62766;62.622;17.912;2023-04-30T04:13:29;100249.76;;;4.20;46.81
44351;BME280;62766;62.622;17.912;2023-04-30T04:15:57;100256.03;;;4.35;46.52
44351;BME280;62766;62.622;17.912;2023-04-30T04:18:26;100257.81;;;4.37;46.24
44351;BME280;62766;62.622;17.912;2023-04-30T04:20:54;100256.45;;;4.30;46.19
44351;BME280;62766;62.622;17.912;2023-04-30T04:23:23;100258.41;;;4.40;46.20
44351;BME280;62766;62.622;17.912;2023-04-30T04:25:51;100261.51;;;4.49;45.57
44351;BME280;62766;62.622;17.912;2023-04-30T04:28:19;100261.29;;;4.66;44.66
44351;BME280;62766;62.622;17.912;2023-04-30T04:30:48;100260.55;;;4.59;44.81
44351;BME280;62766;62.622;17.912;2023-04-30T04:33:16;100262.33;;;4.65;44.45
44351;BME280;62766;62.622;17.912;2023-04-30T04:35:44;100269.63;;;4.61;44.32
44351;BME280;62766;62.622;17.912;2023-04-30T04:38:14;100271.68;;;4.75;44.43
44351;BME280;62766;62.622;17.912;2023-04-30T04:40:50;100273.66;;;4.82;43.72
44351;BME280;62766;62.622;17.912;2023-04-30T04:43:18;100275.49;;;4.83;43.83
44351;BME280;62766;62.622;17.912;2023-04-30T04:45:47;100274.95;;;4.90;43.17
44351;BME280;62766;62.622;17.912;2023-04-30T04:48:15;100278.21;;;4.85;42.85
44351;BME280;62766;62.622;17.912;2023-04-30T04:50:43;100281.77;;;4.93;42.85
44351;BME280;62766;62.622;17.912;2023-04-30T04:53:12;100284.12;;;4.94;42.81
44351;BME280;62766;62.622;17.912;2023-04-30T04:55:41;100282.79;;;4.83;42.47
44351;BME280;62766;62.622;17.912;2023-04-30T04:58:10;100287.69;;;4.95;42.29
44351;BME280;62766;62.622;17.912;2023-04-30T05:00:39;100290.03;;;4.80;42.30
44351;BME280;62766;62.622;17.912;2023-04-30T05:03:07;100290.96;;;4.79;42.03
44351;BME280;62766;62.622;17.912;2023-04-30T05:05:35;100293.50;;;4.74;41.95
44351;BME280;62766;62.622;17.912;2023-04-30T05:08:04;100297.21;;;4.80;41.84
44351;BME280;62766;62.622;17.912;2023-04-30T05:10:32;100302.05;;;4.84;41.82
44351;BME280;62766;62.622;17.912;2023-04-30T05:13:01;100304.13;;;4.91;41.62
44351;BME280;62766;62.622;17.912;2023-04-30T05:15:29;100305.86;;;4.79;41.87
44351;BME280;62766;62.622;17.912;2023-04-30T05:17:57;100305.53;;;4.92;41.66
44351;BME280;62766;62.622;17.912;2023-04-30T05:20:26;100311.59;;;4.87;42.05
44351;BME280;62766;62.622;17.912;2023-04-30T05:22:54;100311.40;;;5.01;41.12
44351;BME280;62766;62.622;17.912;2023-04-30T05:25:22;100318.90;;;4.97;41.19
44351;BME280;62766;62.622;17.912;2023-04-30T05:27:51;100320.00;;;5.10;40.97
44351;BME280;62766;62.622;17.912;2023-04-30T05:30:19;100317.63;;;5.20;40.78
44351;BME280;62766;62.622;17.912;2023-04-30T05:32:48;100321.12;;;5.21;41.15
44351;BME280;62766;62.622;17.912;2023-04-30T05:35:17;100322.56;;;5.32;40.28
44351;BME280;62766;62.622;17.912;2023-04-30T05:37:45;100325.02;;;5.30;40.33
44351;BME280;62766;62.622;17.912;2023-04-30T05:40:14;100322.67;;;5.36;39.95
44351;BME280;62766;62.622;17.912;2023-04-30T05:42:43;100327.63;;;5.48;39.50
44351;BME280;62766;62.622;17.912;2023-04-30T05:45:12;100329.42;;;5.41;39.56
44351;BME280;62766;62.622;17.912;2023-04-30T05:47:41;100326.60;;;5.42;39.05
44351;BME280;62766;62.622;17.912;2023-04-30T05:50:11;100328.52;;;5.55;38.82
44351;BME280;62766;62.622;17.912;2023-04-30T05:52:39;100330.16;;;5.58;39.17
44351;BME280;62766;62.622;17.912;2023-04-30T05:55:08;100329.79;;;5.74;38.94
44351;BME280;62766;62.622;17.912;2023-04-30T05:57:36;100327.23;;;5.91;39.00
44351;BME280;62766;62.622;17.912;2023-04-30T06:00:05;100327.28;;;6.12;38.37
44351;BME280;62766;62.622;17.912;2023-04-30T06:02:34;100324.11;;;6.30;38.53
44351;BME280;62766;62.622;17.912;2023-04-30T06:05:03;100326.30;;;6.30;38.28
44351;BME280;62766;62.622;17.912;2023-04-30T06:07:31;100322.17;;;6.48;37.32
44351;BME280;62766;62.622;17.912;2023-04-30T06:09:59;100329.17;;;6.53;37.80
44351;BME280;62766;62.622;17.912;2023-04-30T06:12:27;100325.75;;;6.63;37.10
44351;BME280;62766;62.622;17.912;2023-04-30T06:14:56;100325.20;;;6.79;37.77
44351;BME280;62766;62.622;17.912;2023-04-30T06:17:24;100327.81;;;6.89;37.16
44351;BME280;62766;62.622;17.912;2023-04-30T06:19:52;100324.81;;;7.08;37.14
44351;BME280;62766;62.622;17.912;2023-04-30T06:22:21;100325.63;;;7.08;36.28
44351;BME280;62766;62.622;17.912;2023-04-30T06:24:49;100320.12;;;7.30;36.37
44351;BME280;62766;62.622;17.912;2023-04-30T06:27:18;100322.60;;;7.30;35.10
44351;BME280;62766;62.622;17.912;2023-04-30T06:29:46;100320.77;;;7.39;35.07
44351;BME280;62766;62.622;17.912;2023-04-30T06:32:14;100321.32;;;7.48;34.90
44351;BME280;62766;62.622;17.912;2023-04-30T06:34:43;100321.98;;;7.55;35.30
44351;BME280;62766;62.622;17.912;2023-04-30T06:37:11;100321.06;;;7.63;35.28
44351;BME280;62766;62.622;17.912;2023-04-30T06:39:39;100319.55;;;7.70;34.16
44351;BME280;62766;62.622;17.912;2023-04-30T06:42:08;100323.18;;;7.61;33.97
44351;BME280;62766;62.622;17.912;2023-04-30T06:44:36;100319.79;;;7.61;33.83
44351;BME280;62766;62.622;17.912;2023-04-30T06:47:05;100321.33;;;7.66;34.02
44351;BME280;62766;62.622;17.912;2023-04-30T06:49:33;100320.83;;;7.77;33.28
44351;BME280;62766;62.622;17.912;2023-04-30T06:52:01;100324.42;;;7.74;33.43
44351;BME280;62766;62.622;17.912;2023-04-30T06:54:30;100324.30;;;7.76;33.48
44351;BME280;62766;62.622;17.912;2023-04-30T06:56:58;100324.90;;;7.85;33.19
44351;BME280;62766;62.622;17.912;2023-04-30T06:59:26;100326.58;;;7.93;33.71
44351;BME280;62766;62.622;17.912;2023-04-30T07:01:55;100324.08;;;8.06;33.35
44351;BME280;62766;62.622;17.912;2023-04-30T07:04:23;100326.45;;;7.92;33.04
44351;BME280;62766;62.622;17.912;2023-04-30T07:06:51;100332.15;;;8.08;33.16
44351;BME280;62766;62.622;17.912;2023-04-30T07:09:20;100322.00;;;8.26;32.57
44351;BME280;62766;62.622;17.912;2023-04-30T07:11:48;100324.80;;;8.27;32.02
44351;BME280;62766;62.622;17.912;2023-04-30T07:14:16;100326.42;;;8.28;32.28
44351;BME280;62766;62.622;17.912;2023-04-30T07:16:45;100324.56;;;8.43;31.94
44351;BME280;62766;62.622;17.912;2023-04-30T07:19:13;100321.51;;;8.57;32.18
44351;BME280;62766;62.622;17.912;2023-04-30T07:21:42;100321.72;;;8.57;32.23
44351;BME280;62766;62.622;17.912;2023-04-30T07:24:11;100322.16;;;8.68;31.54
44351;BME280;62766;62.622;17.912;2023-04-30T07:26:40;100320.72;;;8.66;31.37
44351;BME280;62766;62.622;17.912;2023-04-30T07:29:10;100321.65;;;8.68;31.33
44351;BME280;62766;62.622;17.912;2023-04-30T07:31:38;100328.62;;;8.74;31.52
44351;BME280;62766;62.622;17.912;2023-04-30T07:34:06;100326.58;;;8.83;31.19
44351;BME280;62766;62.622;17.912;2023-04-30T07:36:35;100327.85;;;8.76;30.73
44351;BME280;62766;62.622;17.912;2023-04-30T07:39:03;100325.86;;;8.87;30.93
44351;BME280;62766;62.622;17.912;2023-04-30T07:41:31;100327.81;;;8.86;30.52
44351;BME280;62766;62.622;17.912;2023-04-30T07:43:59;100330.60;;;8.87;30.42
44351;BME280;62766;62.622;17.912;2023-04-30T07:46:28;100333.57;;;9.02;30.00
44351;BME280;62766;62.622;17.912;2023-04-30T07:48:56;100334.74;;;9.08;30.53
44351;BME280;62766;62.622;17.912;2023-04-30T07:51:24;100338.05;;;9.08;29.63
44351;BME280;62766;62.622;17.912;2023-04-30T07:53:53;100340.71;;;9.09;29.05
44351;BME280;62766;62.622;17.912;2023-04-30T07:56:21;100341.99;;;9.19;29.81
44351;BME280;62766;62.622;17.912;2023-04-30T07:58:49;100345.06;;;9.19;29.24
44351;BME280;62766;62.622;17.912;2023-04-30T08:01:18;100350.19;;;9.15;29.03
44351;BME280;62766;62.622;17.912;2023-04-30T08:03:46;100348.20;;;9.26;29.33
44351;BME280;62766;62.622;17.912;2023-04-30T08:06:14;100353.92;;;9.34;29.06
44351;BME280;62766;62.622;17.912;2023-04-30T08:08:43;100351.71;;;9.49;29.04
44351;BME280;62766;62.622;17.912;2023-04-30T08:11:11;100352.32;;;9.46;29.68
44351;BME280;62766;62.622;17.912;2023-04-30T08:13:39;100355.14;;;9.71;29.52
44351;BME280;62766;62.622;17.912;2023-04-30T08:16:07;100354.34;;;9.80;29.16
44351;BME280;62766;62.622;17.912;2023-04-30T08:18:36;100357.40;;;9.91;28.18
44351;BME280;62766;62.622;17.912;2023-04-30T08:21:04;100360.11;;;9.97;27.52
44351;BME280;62766;62.622;17.912;2023-04-30T08:23:32;100360.56;;;10.02;27.20
44351;BME280;62766;62.622;17.912;2023-04-30T08:26:01;100359.87;;;9.94;26.88
44351;BME280;62766;62.622;17.912;2023-04-30T08:28:29;100361.44;;;9.82;27.06
44351;BME280;62766;62.622;17.912;2023-04-30T08:30:57;100363.66;;;9.87;26.36
44351;BME280;62766;62.622;17.912;2023-04-30T08:33:25;100363.22;;;9.66;27.50
44351;BME280;62766;62.622;17.912;2023-04-30T08:35:54;100362.58;;;9.84;27.42
44351;BME280;62766;62.622;17.912;2023-04-30T08:38:22;100359.76;;;9.83;27.28
44351;BME280;62766;62.622;17.912;2023-04-30T08:40:56;100367.41;;;9.92;27.54
44351;BME280;62766;62.622;17.912;2023-04-30T08:43:33;100371.16;;;9.96;26.64
44351;BME280;62766;62.622;17.912;2023-04-30T08:46:01;100368.25;;;10.07;26.86
44351;BME280;62766;62.622;17.912;2023-04-30T08:48:29;100362.20;;;10.06;26.84
44351;BME280;62766;62.622;17.912;2023-04-30T08:50:59;100365.03;;;10.07;26.65
44351;BME280;62766;62.622;17.912;2023-04-30T08:53:29;100362.43;;;10.20;27.08
44351;BME280;62766;62.622;17.912;2023-04-30T08:55:57;100364.51;;;10.37;27.22
44351;BME280;62766;62.622;17.912;2023-04-30T08:58:26;100369.27;;;10.36;26.75
44351;BME280;62766;62.622;17.912;2023-04-30T09:00:56;100369.76;;;10.49;26.66
44351;BME280;62766;62.622;17.912;2023-04-30T09:03:26;100371.73;;;10.80;26.58
44351;BME280;62766;62.622;17.912;2023-04-30T09:05:54;100368.15;;;10.83;26.18
44351;BME280;62766;62.622;17.912;2023-04-30T09:08:40;100370.53;;;10.87;25.21
44351;BME280;62766;62.622;17.912;2023-04-30T09:11:27;100366.59;;;10.96;25.76
44351;BME280;62766;62.622;17.912;2023-04-30T09:13:57;100364.90;;;11.02;26.24
44351;BME280;62766;62.622;17.912;2023-04-30T09:16:27;100369.87;;;10.99;25.45
44351;BME280;62766;62.622;17.912;2023-04-30T09:18:56;100365.82;;;11.10;24.82
44351;BME280;62766;62.622;17.912;2023-04-30T09:21:33;100366.32;;;11.11;25.62
44351;BME280;62766;62.622;17.912;2023-04-30T09:24:02;100372.26;;;11.38;26.03
44351;BME280;62766;62.622;17.912;2023-04-30T09:26:32;100371.31;;;11.39;25.52
44351;BME280;62766;62.622;17.912;2023-04-30T09:29:01;100373.49;;;11.04;25.72
44351;BME280;62766;62.622;17.912;2023-04-30T09:31:31;100374.83;;;10.84;25.55
44351;BME280;62766;62.622;17.912;2023-04-30T09:33:59;100380.15;;;10.48;24.51
44351;BME280;62766;62.622;17.912;2023-04-30T09:36:28;100378.42;;;10.44;26.18
44351;BME280;62766;62.622;17.912;2023-04-30T09:39:05;100376.39;;;10.90;26.33
44351;BME280;62766;62.622;17.912;2023-04-30T09:41:35;100373.67;;;11.00;26.00
44351;BME280;62766;62.622;17.912;2023-04-30T09:44:03;100376.79;;;10.91;25.99
44351;BME280;62766;62.622;17.912;2023-04-30T09:46:34;100379.96;;;11.09;26.02
44351;BME280;62766;62.622;17.912;2023-04-30T09:49:04;100374.57;;;11.22;26.12
44351;BME280;62766;62.622;17.912;2023-04-30T09:51:33;100377.67;;;11.39;26.02
44351;BME280;62766;62.622;17.912;2023-04-30T09:54:02;100377.86;;;11.59;26.48
44351;BME280;62766;62.622;17.912;2023-04-30T09:56:37;100383.45;;;11.77;26.52
44351;BME280;62766;62.622;17.912;2023-04-30T09:59:08;100376.32;;;12.06;24.16
44351;BME280;62766;62.622;17.912;2023-04-30T10:03:37;100389.42;;;11.88;24.63
44351;BME280;62766;62.622;17.912;2023-04-30T10:06:07;100386.81;;;12.04;25.62
44351;BME280;62766;62.622;17.912;2023-04-30T10:08:40;100386.99;;;12.25;24.72
44351;BME280;62766;62.622;17.912;2023-04-30T10:11:10;100386.62;;;12.16;23.62
44351;BME280;62766;62.622;17.912;2023-04-30T10:13:44;100385.25;;;12.07;23.85
44351;BME280;62766;62.622;17.912;2023-04-30T10:16:22;100382.47;;;12.12;23.80
44351;BME280;62766;62.622;17.912;2023-04-30T10:18:51;100383.87;;;12.01;24.45
44351;BME280;62766;62.622;17.912;2023-04-30T10:21:24;100383.33;;;12.12;24.35
44351;BME280;62766;62.622;17.912;2023-04-30T10:23:55;100388.32;;;12.34;25.48
44351;BME280;62766;62.622;17.912;2023-04-30T10:26:23;100389.58;;;12.24;25.24
44351;BME280;62766;62.622;17.912;2023-04-30T10:28:52;100393.70;;;12.08;25.24
44351;BME280;62766;62.622;17.912;2023-04-30T10:31:21;100393.53;;;11.96;25.83
44351;BME280;62766;62.622;17.912;2023-04-30T10:33:59;100382.83;;;12.08;25.94
44351;BME280;62766;62.622;17.912;2023-04-30T10:36:38;100390.98;;;12.07;25.29
44351;BME280;62766;62.622;17.912;2023-04-30T10:39:07;100404.46;;;11.54;25.53
44351;BME280;62766;62.622;17.912;2023-04-30T10:41:35;100407.66;;;11.08;26.19
44351;BME280;62766;62.622;17.912;2023-04-30T10:44:03;100399.96;;;11.38;26.29
44351;BME280;62766;62.622;17.912;2023-04-30T10:46:33;100397.21;;;11.25;25.84
44351;BME280;62766;62.622;17.912;2023-04-30T10:49:01;100401.81;;;11.06;26.27
44351;BME280;62766;62.622;17.912;2023-04-30T10:51:46;100400.50;;;11.14;26.23
44351;BME280;62766;62.622;17.912;2023-04-30T10:54:16;100397.62;;;10.99;26.55
44351;BME280;62766;62.622;17.912;2023-04-30T10:56:50;100396.45;;;11.11;27.08
44351;BME280;62766;62.622;17.912;2023-04-30T10:59:19;100391.02;;;11.70;26.75
44351;BME280;62766;62.622;17.912;2023-04-30T11:01:54;100400.39;;;11.87;25.65
44351;BME280;62766;62.622;17.912;2023-04-30T11:04:23;100398.68;;;11.78;25.52
44351;BME280;62766;62.622;17.912;2023-04-30T11:06:55;100395.62;;;11.69;25.28
44351;BME280;62766;62.622;17.912;2023-04-30T11:09:39;100398.65;;;11.51;25.57
44351;BME280;62766;62.622;17.912;2023-04-30T11:12:11;100392.37;;;11.31;25.55
44351;BME280;62766;62.622;17.912;2023-04-30T11:14:42;100392.51;;;11.16;26.32
44351;BME280;62766;62.622;17.912;2023-04-30T11:17:11;100386.80;;;11.62;26.10
44351;BME280;62766;62.622;17.912;2023-04-30T11:19:48;100390.61;;;11.78;26.57
44351;BME280;62766;62.622;17.912;2023-04-30T11:22:20;100397.55;;;11.76;25.44
44351;BME280;62766;62.622;17.912;2023-04-30T11:24:50;100401.13;;;11.46;25.64
44351;BME280;62766;62.622;17.912;2023-04-30T11:27:19;100400.42;;;11.36;25.96
44351;BME280;62766;62.622;17.912;2023-04-30T11:29:49;100403.39;;;11.31;26.32
44351;BME280;62766;62.622;17.912;2023-04-30T11:32:20;100413.38;;;11.15;27.29
44351;BME280;62766;62.622;17.912;2023-04-30T11:34:49;100410.61;;;11.17;27.23
44351;BME280;62766;62.622;17.912;2023-04-30T11:37:18;100413.73;;;11.54;27.73
44351;BME280;62766;62.622;17.912;2023-04-30T11:39:47;100404.25;;;11.87;27.21
44351;BME280;62766;62.622;17.912;2023-04-30T11:42:18;100410.34;;;11.70;27.18
44351;BME280;62766;62.622;17.912;2023-04-30T11:44:47;100414.28;;;11.49;27.10
44351;BME280;62766;62.622;17.912;2023-04-30T11:47:15;100416.85;;;11.29;27.09
44351;BME280;62766;62.622;17.912;2023-04-30T11:49:50;100417.96;;;11.06;27.33
44351;BME280;62766;62.622;17.912;2023-04-30T11:52:20;100420.97;;;10.86;28.32
44351;BME280;62766;62.622;17.912;2023-04-30T11:54:49;100420.85;;;10.59;28.89
44351;BME280;62766;62.622;17.912;2023-04-30T11:57:17;100421.54;;;10.38;29.30
44351;BME280;62766;62.622;17.912;2023-04-30T11:59:45;100423.57;;;10.55;29.20
44351;BME280;62766;62.622;17.912;2023-04-30T12:02:14;100427.32;;;10.72;29.46
44351;BME280;62766;62.622;17.912;2023-04-30T12:04:44;100417.33;;;11.20;28.87
44351;BME280;62766;62.622;17.912;2023-04-30T12:07:12;100416.78;;;11.84;30.00
44351;BME280;62766;62.622;17.912;2023-04-30T12:09:57;100417.90;;;12.50;27.89
44351;BME280;62766;62.622;17.912;2023-04-30T12:12:27;100415.87;;;12.92;27.25
44351;BME280;62766;62.622;17.912;2023-04-30T12:14:56;100415.79;;;13.43;26.71
44351;BME280;62766;62.622;17.912;2023-04-30T12:17:32;100416.34;;;13.46;26.79
44351;BME280;62766;62.622;17.912;2023-04-30T12:20:01;100417.99;;;13.00;26.27
44351;BME280;62766;62.622;17.912;2023-04-30T12:22:30;100418.43;;;12.70;26.65
44351;BME280;62766;62.622;17.912;2023-04-30T12:24:58;100424.64;;;12.32;27.23
44351;BME280;62766;62.622;17.912;2023-04-30T12:27:28;100428.50;;;12.01;27.46
44351;BME280;62766;62.622;17.912;2023-04-30T12:29:56;100433.69;;;11.69;27.44
44351;BME280;62766;62.622;17.912;2023-04-30T12:32:24;100435.55;;;11.48;27.76
44351;BME280;62766;62.622;17.912;2023-04-30T12:34:57;100438.57;;;11.40;27.97
44351;BME280;62766;62.622;17.912;2023-04-30T12:37:26;100436.85;;;11.27;28.46
44351;BME280;62766;62.622;17.912;2023-04-30T12:39:54;100438.35;;;11.32;28.61
44351;BME280;62766;62.622;17.912;2023-04-30T12:42:23;100433.82;;;11.09;28.71
44351;BME280;62766;62.622;17.912;2023-04-30T12:44:53;100437.82;;;10.84;29.29
44351;BME280;62766;62.622;17.912;2023-04-30T12:47:23;100440.34;;;10.84;29.61
44351;BME280;62766;62.622;17.912;2023-04-30T12:49:54;100439.77;;;10.76;29.50
44351;BME280;62766;62.622;17.912;2023-04-30T12:52:24;100442.35;;;10.56;29.88
44351;BME280;62766;62.622;17.912;2023-04-30T12:54:53;100450.58;;;10.48;30.32
44351;BME280;62766;62.622;17.912;2023-04-30T12:57:21;100444.66;;;10.34;30.39
44351;BME280;62766;62.622;17.912;2023-04-30T12:59:58;100439.44;;;10.37;30.71
44351;BME280;62766;62.622;17.912;2023-04-30T13:02:28;100437.26;;;10.27;30.48
44351;BME280;62766;62.622;17.912;2023-04-30T13:04:58;100441.76;;;10.54;30.52